Portada
METAR-TAF:

METAR-TAF

Aeroports :

Izumo, Japó

latitud: 35-25N, longitud: 132-54E, altitud: 2 m

Observació

L'informe es va fer fa 1 hora i 19 minuts, a les 00:00 UTC
Vent 20 kt del Oest/Nord-Oest
Temperatura 13°C
Humitat 41%
Pressió 1019 hPa
Visibilitat 10 km o més
Escasses núvols a una alçada de 3000 ft

METAR: RJOC 140000Z 29020KT 9999 FEW030 13/00 Q1019

Hora: 10:19 (01:19 UTC)

Pronòstic

L'informe es va fer fa 2 hores i 10 minuts, a les 23:09 UTC
Pronòstic vàlid del 14 a les 00 UTC al 15 a les 06 UTC
Vent 19 kt del Oest/Nord-Oest
Visibilitat 10 km o més
Escasses núvols a una alçada de 2500 ft
Cel ennuvolat a una alçada de 4000 ft
Temporalment
l' 14 a les 00 UTC al 14 a les 03 UTC
Vent 21 kt del Oest/Nord-Oest amb ràfegues de 31 kt
Evolucionant progressivament
l' 14 a les 10 UTC al 14 a les 12 UTC
Vent 9 kt del Oest/Nord-Oest

TAF: RJOC 132309Z 1400/1506 30019KT 9999 FEW025 BKN040 TEMPO 1400/1403 30021G31KT BECMG 1410/1412 30009KT

Observacions i pronòstics meteorològics de més de 4000 aeroports (METAR i TAF).

Les estacions disponibles són els punts grocs i vermells al mapa.

Posi el ratolí al punt desitjat per veure el nom de l'estació.

Feu clic per veure les observacions i els pronòstics meteorològics.

Per canviar el mapa: feu clic els botons verds amb una creu de color negre per apropar; al botó verd amb un guió per allunyar la imatge; o en les fletxes verdes per a mapes adjacents.


METAR-TAF: